Blenker, Wisconsin
Current Conditions -  °F | °C
As of 1:12 AM on Saturday 25 Oct 2014 (Local Time) from KMFI Reporting Station
Haze Haze  
Wind Chill: 56°   Ceiling: 200
Heat Index: 56°   Visibility: 1.7mi
Dew Point: 54°   Wind: 10mph
Humidity: 93%   Direction: 250°WSW
Pressure: 29.84"   Gusts: NA
Location:  44.61°N, 89.92°W
Report Text: KMFI 250612Z AUTO 25009KT 1 3/4SM BR OVC002 13/12 A2984 RMK AO2 T01330122
Loading
Personal Weather Stations






























Interactive Weather Map
Tropical Storm Tracking
New forecast layout! Learn more

10-Day Weather Forecast

Advertisements
Track Severe Weather on mobile